WHTO2: S Canadian Riv, Whitefield, OK

Data processed at Sat Dec 09 2017 23:46


All information presented herein is the property of the government of the United States of America and may be revised or deleted at any time without prior notice.
Dissemination of this information without the expressed written consent of the Public Affairs Office, Tulsa District U.S. Army Corps of Engineers is strictly prohibited.
These data are gathered electronically and, as presented, have not undergone any form of quality control. These data are not guaranteed to be valid or correct.
Go to home page.
Go to station list.

Upstream stations:

Downstream station:
Previous Day
Next Day
Current Day
    
SHEF ID:       WHTO2     Canadian River near Whitefield,
STATION TYPE:  

               PRECIP     STAGE  RIV-FLOW  BAT-LOAD
                   in        ft       cfs      volt
              Ccp-Rev   Ccp-Rev   Ccp-Rev   Ccp-Rev
(US/Central)
12/07 00:00      0.00      5.61      8301     12.65
12/07 01:00      0.00      5.09      6590     12.65
12/07 02:00      0.00      4.56      5019     12.65
12/07 03:00      0.00      4.09      3841     12.65
12/07 04:00      0.00      3.64      2864     12.65
12/07 05:00      0.00      3.26      2149     12.57
12/07 06:00      0.00      2.96      1603     12.57
12/07 07:00      0.00      2.73      1224     12.57
12/07 08:00      0.00      2.56       973     12.49
12/07 09:00      0.00      2.79      1316     12.57
12/07 10:00      0.00      4.68      5351     13.21
12/07 11:00      0.00      5.83      9081      ----
12/07 12:00      0.00      6.35     11095     13.68
12/07 13:00      0.00      6.22     10569     13.53
12/07 14:00      0.00      5.72      8686     13.44
12/07 15:00      0.00      5.16      6818     13.37
12/07 16:00      0.00      4.61      5156     13.29
12/07 17:00      0.00      4.11      3888     13.21
12/07 18:00      0.00      3.65      2884     12.89
12/07 19:00      0.00      3.27      2168     12.73
12/07 20:00      0.00      3.48      2555     12.73
12/07 21:00      0.00      4.96      6180     12.73
12/07 22:00      0.00      5.94      9487     12.65
12/07 23:00      0.00      6.10     10097     12.65